Time;durP1;ratioP1;P1;durP2;ratioP2;P2;SDS_P1;SDS_P2;PMS_P1;PMS_P2;Temp;Humidity;BMP_temperature;BMP_pressure;BME280_temperature;BME280_humidity;BME280_pressure;Samples;Min_cycle;Max_cycle;Signal;HPM_P1;HPM_P2
2024/03/23 00:00:26;;;;;;;8.93;7.07;;;15.90;99.90;;;;;;5009018;28;20812;-66
2024/03/23 00:02:53;;;;;;;10.70;6.30;;;15.90;99.90;;;;;;5014014;28;21013;-67
2024/03/23 00:05:19;;;;;;;9.67;6.60;;;15.90;99.90;;;;;;5007482;28;20838;-66
2024/03/23 00:07:46;;;;;;;6.37;5.37;;;15.90;99.90;;;;;;5011156;28;20427;-66
2024/03/23 00:10:12;;;;;;;8.50;6.73;;;15.80;99.90;;;;;;5008392;28;20423;-67
2024/03/23 00:12:39;;;;;;;10.63;6.90;;;15.80;99.90;;;;;;5012363;28;20430;-66
2024/03/23 00:15:05;;;;;;;6.40;5.80;;;15.80;99.90;;;;;;5009636;28;20469;-66
2024/03/23 00:17:32;;;;;;;8.20;6.00;;;15.80;99.90;;;;;;5012524;28;20428;-67
2024/03/23 00:19:58;;;;;;;8.27;6.60;;;15.80;99.90;;;;;;5013569;28;20423;-66
2024/03/23 00:22:25;;;;;;;8.40;7.07;;;15.80;99.90;;;;;;5013129;28;20524;-67
2024/03/23 00:24:51;;;;;;;8.10;7.10;;;15.80;99.90;;;;;;5010476;28;20463;-67
2024/03/23 00:27:18;;;;;;;8.77;6.77;;;15.80;99.90;;;;;;5011117;28;20786;-67
2024/03/23 00:29:44;;;;;;;7.90;6.40;;;15.70;99.90;;;;;;5013205;28;20461;-65
2024/03/23 00:32:11;;;;;;;6.30;5.47;;;15.70;99.90;;;;;;5016774;28;20529;-65
2024/03/23 00:34:37;;;;;;;7.77;5.93;;;15.70;99.90;;;;;;5008144;28;21185;-67
2024/03/23 00:37:04;;;;;;;7.70;6.87;;;15.60;99.90;;;;;;5014096;28;20992;-67
2024/03/23 00:39:30;;;;;;;8.10;6.60;;;15.60;99.90;;;;;;5008104;28;20438;-66
2024/03/23 00:41:57;;;;;;;9.60;6.80;;;15.60;99.90;;;;;;5011590;28;20455;-68
2024/03/23 00:44:23;;;;;;;7.37;5.70;;;15.60;99.90;;;;;;5006666;28;20466;-67
2024/03/23 00:46:50;;;;;;;10.77;6.90;;;15.60;99.90;;;;;;5011616;28;20449;-67
2024/03/23 00:49:16;;;;;;;8.43;6.93;;;15.50;99.90;;;;;;5012210;28;20438;-67
2024/03/23 00:51:43;;;;;;;8.57;6.40;;;15.50;99.90;;;;;;5012402;28;20443;-67
2024/03/23 00:54:08;;;;;;;9.60;5.87;;;15.40;99.90;;;;;;5014117;28;20565;-66
2024/03/23 00:56:34;;;;;;;7.77;6.33;;;15.40;99.90;;;;;;5018005;28;20517;-66
2024/03/23 00:58:59;;;;;;;6.77;6.07;;;15.40;99.90;;;;;;5015651;28;20641;-66
2024/03/23 01:01:25;;;;;;;9.73;6.73;;;15.40;99.90;;;;;;5008789;28;20195;-66
2024/03/23 01:03:50;;;;;;;5.73;5.20;;;15.30;99.90;;;;;;5012373;28;20197;-67
2024/03/23 01:06:16;;;;;;;5.87;5.30;;;15.30;99.90;;;;;;5014766;28;20191;-67
2024/03/23 01:08:42;;;;;;;6.97;6.27;;;15.20;99.90;;;;;;5010646;28;20181;-67
2024/03/23 01:11:08;;;;;;;8.63;6.33;;;15.10;99.90;;;;;;5015459;28;20189;-66
2024/03/23 01:13:33;;;;;;;8.00;6.20;;;15.10;99.90;;;;;;5013877;28;20176;-66
2024/03/23 01:15:59;;;;;;;7.17;6.17;;;15.10;99.90;;;;;;5013017;28;20427;-66
2024/03/23 01:18:26;;;;;;;7.63;6.57;;;15.00;99.90;;;;;;5011079;28;20534;-66
2024/03/23 01:20:52;;;;;;;7.90;6.17;;;15.00;99.90;;;;;;5015841;28;20293;-66
2024/03/23 01:23:17;;;;;;;7.57;5.97;;;14.90;99.90;;;;;;5012748;28;20467;-66
2024/03/23 01:25:43;;;;;;;7.10;5.70;;;15.00;99.90;;;;;;5013584;28;20208;-66
2024/03/23 01:28:09;;;;;;;9.30;5.93;;;15.00;99.90;;;;;;5010173;28;20192;-67
2024/03/23 01:30:35;;;;;;;6.80;6.00;;;14.90;99.90;;;;;;5013634;28;20177;-67
2024/03/23 01:33:01;;;;;;;7.40;5.60;;;14.90;99.90;;;;;;5009316;28;20651;-67
2024/03/23 01:35:27;;;;;;;6.80;5.13;;;14.80;99.90;;;;;;5012784;28;20450;-67
2024/03/23 01:37:53;;;;;;;6.40;5.47;;;14.80;99.90;;;;;;5013334;28;21160;-67
2024/03/23 01:40:18;;;;;;;7.13;5.30;;;14.80;99.90;;;;;;5009178;28;20482;-67
2024/03/23 01:42:55;;;;;;;8.90;5.30;;;14.80;99.90;;;;;;5011660;28;20217;-67
2024/03/23 01:45:21;;;;;;;5.70;5.17;;;14.80;99.90;;;;;;5008895;28;20228;-67
2024/03/23 01:47:47;;;;;;;6.87;5.23;;;14.90;99.90;;;;;;5018940;28;20446;-67
2024/03/23 01:50:13;;;;;;;5.90;5.30;;;14.90;99.90;;;;;;5011259;28;20195;-66
2024/03/23 01:52:39;;;;;;;7.43;5.27;;;14.90;99.90;;;;;;5007291;28;20264;-67
2024/03/23 01:55:05;;;;;;;6.07;5.30;;;14.90;99.90;;;;;;5011489;28;20609;-67
2024/03/23 01:57:30;;;;;;;6.20;5.57;;;14.90;99.90;;;;;;5007753;28;20237;-67
2024/03/23 01:59:56;;;;;;;6.00;5.10;;;14.90;99.90;;;;;;5011508;28;20427;-67
2024/03/23 02:02:22;;;;;;;5.77;5.03;;;14.90;99.90;;;;;;5008616;28;20247;-67
2024/03/23 02:04:47;;;;;;;6.00;5.13;;;14.90;99.90;;;;;;5012423;28;20211;-67
2024/03/23 02:07:13;;;;;;;6.20;4.80;;;14.90;99.90;;;;;;5009402;28;20268;-67
2024/03/23 02:09:39;;;;;;;9.57;5.10;;;14.90;99.90;;;;;;5007952;28;20192;-66
2024/03/23 02:12:05;;;;;;;6.93;5.23;;;14.90;99.90;;;;;;5014960;28;20678;-66
2024/03/23 02:14:32;;;;;;;6.67;5.43;;;14.80;99.90;;;;;;5008854;28;20209;-67
2024/03/23 02:16:57;;;;;;;5.20;4.17;;;14.90;99.90;;;;;;5015260;28;20455;-67
2024/03/23 02:19:24;;;;;;;6.07;5.30;;;14.80;99.90;;;;;;5010188;28;20431;-67
2024/03/23 02:21:49;;;;;;;7.77;4.40;;;14.90;99.90;;;;;;5016724;28;20839;-67
2024/03/23 02:24:15;;;;;;;7.97;6.30;;;14.90;99.90;;;;;;5016429;28;20554;-67
2024/03/23 02:26:40;;;;;;;7.70;5.30;;;14.90;99.90;;;;;;5011841;28;20188;-66
2024/03/23 02:29:06;;;;;;;8.80;5.90;;;14.90;99.90;;;;;;5009625;28;20944;-66
2024/03/23 02:31:32;;;;;;;7.87;5.80;;;14.90;99.90;;;;;;5006664;28;20184;-67
2024/03/23 02:33:57;;;;;;;6.10;4.90;;;14.80;99.90;;;;;;5013636;28;20322;-66
2024/03/23 02:36:23;;;;;;;5.90;4.67;;;14.80;99.90;;;;;;5017053;28;20176;-67
2024/03/23 02:38:48;;;;;;;6.20;5.03;;;14.90;99.90;;;;;;5011738;28;20188;-66
2024/03/23 02:41:14;;;;;;;5.93;4.70;;;14.90;99.90;;;;;;5012348;28;20245;-66
2024/03/23 02:43:40;;;;;;;6.73;5.27;;;14.90;99.90;;;;;;5005245;28;20209;-66
2024/03/23 02:46:05;;;;;;;5.93;5.33;;;14.90;99.90;;;;;;5008239;28;20686;-66
2024/03/23 02:48:31;;;;;;;8.00;6.23;;;14.80;99.90;;;;;;5013414;28;20231;-66
2024/03/23 02:50:56;;;;;;;7.67;6.20;;;14.90;99.90;;;;;;5012310;28;20184;-67
2024/03/23 02:53:22;;;;;;;6.83;5.63;;;15.00;99.90;;;;;;5010705;28;20193;-67
2024/03/23 02:55:48;;;;;;;7.33;5.77;;;14.90;99.90;;;;;;5008591;28;20212;-67
2024/03/23 02:58:13;;;;;;;8.37;6.37;;;14.90;99.90;;;;;;5014207;28;20315;-66
2024/03/23 03:00:39;;;;;;;7.20;6.17;;;14.80;99.90;;;;;;5008802;28;20184;-67
2024/03/23 03:03:04;;;;;;;8.40;5.93;;;14.70;99.90;;;;;;5017951;28;20283;-66
2024/03/23 03:05:30;;;;;;;6.50;5.80;;;14.70;99.90;;;;;;5009012;28;20579;-67
2024/03/23 03:07:56;;;;;;;9.93;6.80;;;14.70;99.90;;;;;;5009839;28;20177;-66
2024/03/23 03:10:21;;;;;;;7.80;6.63;;;14.60;99.90;;;;;;5011750;28;20216;-66
2024/03/23 03:12:47;;;;;;;7.00;6.27;;;14.60;99.90;;;;;;5013773;28;20246;-66
2024/03/23 03:15:13;;;;;;;8.40;7.60;;;14.50;99.90;;;;;;5012667;28;20291;-66
2024/03/23 03:17:38;;;;;;;8.20;7.27;;;14.50;99.90;;;;;;5009448;28;20188;-66
2024/03/23 03:20:05;;;;;;;11.53;7.43;;;14.50;99.90;;;;;;5013215;28;20931;-66
2024/03/23 03:22:30;;;;;;;11.47;8.77;;;14.50;99.90;;;;;;5014897;28;20713;-66
2024/03/23 03:24:56;;;;;;;12.70;9.00;;;14.60;99.90;;;;;;5028564;28;20483;-66
2024/03/23 03:27:22;;;;;;;10.17;8.63;;;14.60;99.90;;;;;;5011297;28;20189;-66
2024/03/23 03:29:48;;;;;;;10.33;8.40;;;14.60;99.90;;;;;;5009628;28;20192;-67
2024/03/23 03:32:14;;;;;;;11.43;9.20;;;14.70;99.90;;;;;;5010143;28;21327;-67
2024/03/23 03:34:39;;;;;;;13.60;9.40;;;14.60;99.90;;;;;;5008992;28;20228;-67
2024/03/23 03:37:05;;;;;;;12.03;8.70;;;14.60;99.90;;;;;;5014931;28;20185;-66
2024/03/23 03:39:31;;;;;;;13.30;9.60;;;14.60;99.90;;;;;;5006950;28;20185;-67
2024/03/23 03:41:56;;;;;;;11.67;9.33;;;14.60;99.90;;;;;;5012068;28;20204;-67
2024/03/23 03:44:22;;;;;;;14.23;9.73;;;14.60;99.90;;;;;;5009292;28;20244;-67
2024/03/23 03:46:47;;;;;;;15.13;8.43;;;14.40;99.90;;;;;;5010603;28;20254;-66
2024/03/23 03:49:13;;;;;;;10.63;9.40;;;14.40;99.90;;;;;;5013491;28;20189;-66
2024/03/23 03:51:38;;;;;;;12.30;9.60;;;14.40;99.90;;;;;;5010240;28;20188;-66
2024/03/23 03:54:04;;;;;;;14.37;11.00;;;14.50;99.90;;;;;;5008586;28;20208;-66
2024/03/23 03:56:29;;;;;;;13.93;10.00;;;14.40;99.90;;;;;;5009248;28;20188;-66
2024/03/23 03:58:55;;;;;;;10.67;9.53;;;14.30;99.90;;;;;;5010719;28;20199;-66
2024/03/23 04:01:20;;;;;;;14.70;11.20;;;14.30;99.90;;;;;;5017146;28;20188;-67
2024/03/23 04:03:46;;;;;;;12.47;10.23;;;14.40;99.90;;;;;;5003273;28;20638;-67
2024/03/23 04:06:12;;;;;;;13.47;10.90;;;14.30;99.90;;;;;;5012901;28;20200;-66
2024/03/23 04:08:37;;;;;;;13.53;10.27;;;14.30;99.90;;;;;;5012515;28;20192;-66
2024/03/23 04:11:03;;;;;;;12.20;10.93;;;14.20;99.90;;;;;;5013616;28;20598;-67
2024/03/23 04:13:29;;;;;;;16.50;10.90;;;14.10;99.90;;;;;;5015462;28;20773;-66
2024/03/23 04:15:58;;;;;;;14.40;11.63;;;14.10;99.90;;;;;;5019167;28;20223;-67
2024/03/23 04:18:24;;;;;;;16.63;11.00;;;14.10;99.90;;;;;;5015729;28;20639;-67
2024/03/23 04:20:49;;;;;;;19.13;11.60;;;14.10;99.90;;;;;;5009836;28;20435;-66
2024/03/23 04:23:15;;;;;;;15.13;11.40;;;14.10;99.90;;;;;;5014168;28;20226;-67
2024/03/23 04:25:40;;;;;;;12.00;9.20;;;14.00;99.90;;;;;;5014891;28;20291;-66
2024/03/23 04:28:06;;;;;;;14.23;10.40;;;14.00;99.90;;;;;;5008274;28;20200;-66
2024/03/23 04:30:32;;;;;;;12.80;10.70;;;13.90;99.90;;;;;;5016640;28;20183;-67
2024/03/23 04:32:58;;;;;;;10.43;7.40;;;13.80;99.90;;;;;;5005697;28;20243;-66
2024/03/23 04:35:26;;;;;;;11.33;9.20;;;13.80;99.90;;;;;;5008854;28;20208;-67
2024/03/23 04:37:53;;;;;;;11.40;7.93;;;13.60;99.90;;;;;;5008413;28;20897;-66
2024/03/23 04:40:20;;;;;;;10.23;6.93;;;13.50;99.90;;;;;;5010090;28;20511;-67
2024/03/23 04:42:45;;;;;;;11.83;9.10;;;13.40;99.90;;;;;;5014255;28;20506;-67
2024/03/23 04:45:11;;;;;;;9.80;8.10;;;13.40;99.90;;;;;;5013946;28;21032;-67
2024/03/23 04:47:37;;;;;;;11.07;8.20;;;13.30;99.90;;;;;;5016885;28;20232;-67
2024/03/23 04:50:04;;;;;;;10.40;7.47;;;13.30;99.90;;;;;;5011378;28;20178;-67
2024/03/23 04:52:30;;;;;;;8.40;7.40;;;13.30;99.90;;;;;;5017459;28;20427;-67
2024/03/23 04:54:56;;;;;;;10.07;6.87;;;13.30;99.90;;;;;;5012965;28;20454;-67
2024/03/23 04:57:22;;;;;;;10.20;7.30;;;13.30;99.90;;;;;;5005901;28;20180;-67
2024/03/23 04:59:47;;;;;;;11.20;7.67;;;13.40;99.90;;;;;;5018875;28;20519;-67
2024/03/23 05:02:14;;;;;;;10.00;7.20;;;13.40;99.90;;;;;;5020418;28;20605;-66
2024/03/23 05:04:40;;;;;;;8.70;7.10;;;13.30;99.90;;;;;;5009687;28;20500;-67
2024/03/23 05:07:06;;;;;;;10.20;6.83;;;13.30;99.90;;;;;;5015623;28;20505;-66
2024/03/23 05:09:33;;;;;;;7.87;6.53;;;13.20;99.90;;;;;;5019081;28;20479;-66
2024/03/23 05:12:00;;;;;;;6.67;5.73;;;13.20;99.90;;;;;;5015666;28;20185;-66
2024/03/23 05:14:26;;;;;;;6.90;5.50;;;13.30;99.90;;;;;;5018528;28;20450;-66
2024/03/23 05:16:52;;;;;;;6.27;4.90;;;13.20;99.90;;;;;;5011891;28;20507;-66
2024/03/23 05:19:18;;;;;;;6.80;5.03;;;13.30;99.90;;;;;;5013950;28;20525;-66
2024/03/23 05:21:43;;;;;;;5.90;4.70;;;13.20;99.90;;;;;;5015870;28;20534;-66
2024/03/23 05:24:09;;;;;;;4.43;3.40;;;13.10;99.90;;;;;;5019422;28;20204;-66
2024/03/23 05:26:35;;;;;;;4.30;3.10;;;12.90;99.90;;;;;;5015683;28;20613;-67
2024/03/23 05:29:01;;;;;;;3.57;2.83;;;12.90;99.90;;;;;;5015292;28;21798;-67
2024/03/23 05:31:28;;;;;;;4.60;3.23;;;12.90;99.90;;;;;;5016833;28;20447;-67
2024/03/23 05:33:54;;;;;;;3.33;2.60;;;13.00;99.90;;;;;;5015148;28;20447;-66
2024/03/23 05:36:20;;;;;;;3.67;2.60;;;12.80;99.90;;;;;;5014715;28;20450;-66
2024/03/23 05:38:46;;;;;;;3.50;2.33;;;12.80;99.90;;;;;;5012679;28;20447;-66
2024/03/23 05:41:11;;;;;;;2.80;2.23;;;12.70;99.90;;;;;;5015409;28;20189;-66
2024/03/23 05:43:37;;;;;;;5.40;2.30;;;12.70;99.90;;;;;;5017802;28;20459;-66
2024/03/23 05:46:05;;;;;;;3.23;1.93;;;12.70;99.90;;;;;;5013453;28;20208;-67
2024/03/23 05:48:30;;;;;;;4.70;2.20;;;12.60;99.90;;;;;;5018866;28;20572;-66
2024/03/23 05:50:56;;;;;;;4.13;2.30;;;12.60;99.90;;;;;;5009445;28;20442;-66
2024/03/23 05:53:23;;;;;;;2.87;2.30;;;12.40;99.90;;;;;;5017722;28;20193;-66
2024/03/23 05:55:49;;;;;;;3.70;3.03;;;12.30;99.90;;;;;;5010855;28;20497;-66
2024/03/23 05:58:16;;;;;;;2.33;1.80;;;12.20;99.90;;;;;;5014240;28;20427;-66
2024/03/23 06:00:42;;;;;;;2.97;2.40;;;12.10;99.90;;;;;;5008254;28;20497;-67
2024/03/23 06:03:08;;;;;;;2.67;2.00;;;12.00;99.90;;;;;;5012143;28;20482;-68
2024/03/23 06:05:34;;;;;;;2.40;1.93;;;12.20;99.90;;;;;;5012290;28;20464;-68
2024/03/23 06:07:59;;;;;;;2.57;2.00;;;12.20;99.90;;;;;;5010431;28;20427;-66
2024/03/23 06:10:25;;;;;;;2.50;1.70;;;12.20;99.90;;;;;;5014829;28;20466;-66
2024/03/23 06:12:52;;;;;;;2.60;1.50;;;12.10;99.90;;;;;;5012760;28;20861;-67
2024/03/23 06:15:18;;;;;;;2.13;1.50;;;12.00;99.90;;;;;;5015837;28;20206;-67
2024/03/23 06:17:44;;;;;;;2.87;1.70;;;12.00;99.90;;;;;;5015843;28;20438;-67
2024/03/23 06:20:10;;;;;;;2.13;1.70;;;11.90;99.90;;;;;;5013580;28;20428;-67
2024/03/23 06:22:36;;;;;;;1.90;1.60;;;11.80;99.90;;;;;;5015807;28;20205;-67
2024/03/23 06:25:02;;;;;;;2.03;1.57;;;11.80;99.90;;;;;;5012648;28;20541;-66
2024/03/23 06:27:28;;;;;;;3.10;1.50;;;11.70;99.90;;;;;;5013925;28;20929;-67
2024/03/23 06:29:53;;;;;;;2.17;1.53;;;11.80;99.90;;;;;;5011133;28;20428;-67
2024/03/23 06:32:20;;;;;;;2.30;1.50;;;11.80;99.90;;;;;;5015203;28;20188;-66
2024/03/23 06:34:46;;;;;;;4.00;1.60;;;11.80;99.90;;;;;;5013133;28;20863;-67
2024/03/23 06:37:12;;;;;;;1.90;1.50;;;11.80;99.90;;;;;;5016593;28;20427;-66
2024/03/23 06:39:38;;;;;;;2.10;1.53;;;11.80;99.90;;;;;;5013238;28;20211;-67
2024/03/23 06:42:04;;;;;;;2.27;1.47;;;11.70;99.90;;;;;;5011481;28;20554;-67
2024/03/23 06:44:30;;;;;;;1.80;1.53;;;11.60;99.90;;;;;;5010267;28;20463;-66
2024/03/23 06:46:56;;;;;;;2.00;1.60;;;11.70;99.90;;;;;;5016641;28;20422;-68
2024/03/23 06:49:23;;;;;;;1.90;1.40;;;11.70;99.90;;;;;;5015700;28;20557;-66
2024/03/23 06:51:49;;;;;;;2.10;1.50;;;11.60;99.90;;;;;;5013192;28;20467;-67
2024/03/23 06:54:16;;;;;;;1.93;1.37;;;11.50;99.90;;;;;;5012933;28;21106;-67
2024/03/23 06:56:41;;;;;;;2.17;1.57;;;11.50;99.90;;;;;;5005203;28;20542;-66
2024/03/23 06:59:07;;;;;;;2.00;1.70;;;11.60;99.90;;;;;;5015676;28;20539;-67
2024/03/23 07:01:33;;;;;;;1.90;1.47;;;11.70;99.90;;;;;;5017039;28;20651;-67
2024/03/23 07:03:58;;;;;;;2.10;1.60;;;11.60;99.90;;;;;;5007638;28;20217;-67
2024/03/23 07:06:24;;;;;;;2.23;1.53;;;11.60;99.90;;;;;;5016012;28;20180;-67
2024/03/23 07:08:49;;;;;;;2.33;1.80;;;11.60;99.90;;;;;;5010472;28;20189;-67
2024/03/23 07:11:22;;;;;;;1.90;1.40;;;11.60;99.90;;;;;;5011447;28;20671;-66
2024/03/23 07:13:50;;;;;;;1.80;1.40;;;11.50;99.90;;;;;;5014804;28;20200;-66
2024/03/23 07:16:16;;;;;;;2.20;1.70;;;11.30;99.90;;;;;;5016084;28;21155;-67
2024/03/23 07:18:42;;;;;;;2.10;1.50;;;11.50;99.90;;;;;;5014807;28;20450;-66
2024/03/23 07:21:08;;;;;;;1.83;1.40;;;11.40;99.90;;;;;;5008251;28;20443;-66
2024/03/23 07:23:34;;;;;;;1.90;1.50;;;11.60;99.90;;;;;;5014463;28;20236;-66
2024/03/23 07:26:02;;;;;;;2.10;1.40;;;11.70;99.90;;;;;;5007298;28;20267;-67
2024/03/23 07:28:31;;;;;;;2.00;1.47;;;11.90;99.90;;;;;;5015379;28;20489;-66
2024/03/23 07:31:26;;;;;;;1.80;1.37;;;11.80;99.90;;;;;;5007719;28;21062;-66
2024/03/23 07:33:52;;;;;;;1.80;1.40;;;12.00;99.90;;;;;;5004112;28;20435;-67
2024/03/23 07:36:18;;;;;;;2.07;1.50;;;11.70;99.90;;;;;;5010613;28;20428;-66
2024/03/23 07:38:46;;;;;;;1.80;1.33;;;11.70;99.90;;;;;;5008568;28;20172;-67
2024/03/23 07:41:17;;;;;;;1.70;1.30;;;11.80;99.90;;;;;;5011912;28;20268;-67
2024/03/23 07:43:42;;;;;;;1.80;1.40;;;11.90;99.90;;;;;;5013116;28;20476;-67
2024/03/23 07:46:08;;;;;;;1.80;1.40;;;11.70;99.90;;;;;;5006569;28;20435;-67
2024/03/23 07:48:33;;;;;;;3.40;2.70;;;11.70;99.90;;;;;;5011287;28;20620;-67
2024/03/23 07:51:07;;;;;;;2.00;1.50;;;11.60;99.90;;;;;;5015381;28;20801;-67
2024/03/23 07:53:33;;;;;;;2.13;1.77;;;11.70;99.90;;;;;;5016414;28;20316;-67
2024/03/23 07:56:01;;;;;;;1.87;1.60;;;11.60;99.90;;;;;;5014940;28;20443;-67
2024/03/23 07:58:27;;;;;;;1.90;1.50;;;11.60;99.90;;;;;;5011416;28;20435;-67
2024/03/23 08:00:54;;;;;;;2.53;2.00;;;11.60;99.90;;;;;;5014870;28;22019;-67
2024/03/23 08:03:20;;;;;;;2.80;2.00;;;11.80;99.90;;;;;;5014729;28;20834;-67
2024/03/23 08:05:46;;;;;;;2.07;1.60;;;11.90;99.90;;;;;;5010756;28;20460;-67
2024/03/23 08:08:11;;;;;;;2.40;1.90;;;12.00;99.90;;;;;;5012223;28;20181;-66
2024/03/23 08:10:46;;;;;;;3.07;1.97;;;12.00;99.90;;;;;;5014557;28;20906;-66
2024/03/23 08:13:12;;;;;;;4.00;1.97;;;12.00;99.90;;;;;;5014473;28;20184;-66
2024/03/23 08:15:38;;;;;;;4.80;2.00;;;12.00;99.90;;;;;;5013738;28;20466;-67
2024/03/23 08:18:04;;;;;;;7.13;1.90;;;11.80;99.90;;;;;;5006711;28;20188;-67
2024/03/23 08:20:30;;;;;;;5.03;2.30;;;11.80;99.90;;;;;;5012045;28;20721;-67
2024/03/23 08:22:55;;;;;;;2.97;2.13;;;11.80;99.90;;;;;;5010457;28;20459;-67
2024/03/23 08:25:21;;;;;;;7.00;3.33;;;11.90;99.90;;;;;;5013161;28;20510;-66
2024/03/23 08:27:47;;;;;;;5.27;2.70;;;11.70;99.90;;;;;;5012360;28;20245;-67
2024/03/23 08:30:13;;;;;;;4.10;2.90;;;11.50;99.90;;;;;;5012420;28;20574;-66
2024/03/23 08:32:38;;;;;;;9.67;3.40;;;11.70;99.90;;;;;;5015424;28;20212;-67
2024/03/23 08:35:04;;;;;;;4.83;3.20;;;11.60;99.90;;;;;;5013733;28;20220;-66
2024/03/23 08:37:30;;;;;;;7.00;3.43;;;11.70;99.90;;;;;;5011690;28;20192;-67
2024/03/23 08:39:55;;;;;;;4.10;2.90;;;11.80;99.90;;;;;;5006192;28;20489;-67
2024/03/23 08:42:21;;;;;;;6.23;3.40;;;11.80;99.90;;;;;;5017202;28;20255;-68
2024/03/23 08:44:49;;;;;;;6.93;3.50;;;11.60;99.90;;;;;;5008466;28;20286;-67
2024/03/23 08:47:15;;;;;;;6.17;3.80;;;11.70;99.90;;;;;;5009432;28;20674;-66
2024/03/23 08:49:41;;;;;;;10.00;3.57;;;11.80;99.90;;;;;;5012290;28;20856;-67
2024/03/23 08:52:07;;;;;;;7.23;4.20;;;11.80;99.90;;;;;;5017846;28;20435;-66
2024/03/23 08:54:33;;;;;;;4.73;3.23;;;12.00;99.90;;;;;;5015475;28;20598;-67
2024/03/23 08:56:58;;;;;;;5.30;3.47;;;12.00;99.90;;;;;;5015594;28;20866;-67
2024/03/23 08:59:24;;;;;;;6.87;3.67;;;11.80;99.90;;;;;;5021456;28;21234;-67
2024/03/23 09:01:50;;;;;;;6.40;3.97;;;12.00;99.90;;;;;;5011447;28;20200;-67
2024/03/23 09:04:15;;;;;;;5.17;4.03;;;12.30;99.90;;;;;;5012870;28;20201;-67
2024/03/23 09:06:44;;;;;;;6.30;3.47;;;12.50;99.90;;;;;;5016206;28;20181;-67
2024/03/23 09:09:09;;;;;;;5.90;3.47;;;12.70;99.90;;;;;;5014147;28;20204;-67
2024/03/23 09:11:35;;;;;;;10.33;3.63;;;12.70;99.90;;;;;;5017422;28;21018;-67
2024/03/23 09:14:00;;;;;;;6.40;3.27;;;12.80;99.90;;;;;;5013373;28;20228;-67
2024/03/23 09:16:26;;;;;;;9.47;3.80;;;13.00;99.90;;;;;;5013002;28;20280;-67
2024/03/23 09:18:52;;;;;;;6.07;2.90;;;12.90;98.60;;;;;;5016076;28;20234;-67
2024/03/23 09:21:18;;;;;;;7.20;3.13;;;12.60;97.20;;;;;;5015432;28;20755;-67
2024/03/23 09:23:44;;;;;;;4.83;3.00;;;12.60;96.80;;;;;;5010803;28;20463;-67
2024/03/23 09:26:10;;;;;;;5.90;3.20;;;12.60;96.10;;;;;;5018437;28;20660;-67
2024/03/23 09:28:36;;;;;;;9.33;3.63;;;12.70;95.80;;;;;;5020745;28;20414;-67
2024/03/23 09:31:07;;;;;;;7.90;3.57;;;12.40;94.50;;;;;;5014402;28;20190;-67
2024/03/23 09:33:34;;;;;;;10.47;5.27;;;12.30;95.00;;;;;;5015976;28;20428;-67
2024/03/23 09:36:04;;;;;;;5.20;3.37;;;12.30;95.00;;;;;;5017741;28;20921;-68
2024/03/23 09:38:30;;;;;;;7.57;4.30;;;12.20;95.10;;;;;;5009645;28;21019;-67
2024/03/23 09:40:56;;;;;;;6.67;3.60;;;12.30;95.00;;;;;;5015228;28;20430;-67
2024/03/23 09:43:22;;;;;;;10.80;3.90;;;12.20;94.60;;;;;;5011799;28;20213;-67
2024/03/23 09:45:49;;;;;;;7.83;3.50;;;12.20;94.70;;;;;;5013626;28;20454;-68
2024/03/23 09:48:15;;;;;;;12.00;4.23;;;12.10;95.20;;;;;;5006419;28;20539;-69
2024/03/23 09:50:42;;;;;;;5.93;4.20;;;12.00;97.00;;;;;;5020490;28;20430;-68
2024/03/23 09:53:09;;;;;;;7.13;4.57;;;11.70;99.10;;;;;;5017303;28;20490;-68
2024/03/23 09:55:35;;;;;;;8.10;4.00;;;11.50;99.90;;;;;;5017639;28;20458;-67
2024/03/23 09:58:02;;;;;;;11.33;6.60;;;11.30;99.90;;;;;;5011692;28;20871;-68
2024/03/23 10:00:28;;;;;;;5.97;4.03;;;11.40;99.90;;;;;;5007403;28;20436;-67
2024/03/23 10:03:01;;;;;;;5.03;3.50;;;11.20;99.90;;;;;;5010826;28;20473;-68
2024/03/23 10:05:27;;;;;;;9.50;5.90;;;11.20;99.90;;;;;;5007060;28;20627;-68
2024/03/23 10:07:53;;;;;;;7.30;4.27;;;11.00;99.90;;;;;;5008816;28;20424;-68
2024/03/23 10:10:20;;;;;;;7.27;4.30;;;10.90;99.90;;;;;;5011705;28;20423;-67
2024/03/23 10:12:47;;;;;;;6.30;5.13;;;10.90;99.90;;;;;;5010026;28;20436;-68
2024/03/23 10:15:24;;;;;;;12.70;5.10;;;10.80;99.90;;;;;;5013820;28;20530;-68
2024/03/23 10:17:51;;;;;;;10.73;4.83;;;10.90;99.90;;;;;;5011195;28;20441;-68
2024/03/23 10:20:23;;;;;;;7.07;4.37;;;10.90;99.90;;;;;;5016520;28;20470;-68
2024/03/23 10:22:51;;;;;;;10.40;4.77;;;11.00;99.90;;;;;;5018606;28;21124;-68
2024/03/23 10:25:17;;;;;;;6.10;4.07;;;11.20;99.90;;;;;;5021534;28;20525;-68
2024/03/23 10:27:43;;;;;;;12.17;5.50;;;11.40;99.90;;;;;;5022510;28;21029;-68
2024/03/23 10:30:16;;;;;;;10.63;5.00;;;11.40;99.90;;;;;;5024286;28;20881;-68
2024/03/23 10:32:42;;;;;;;5.67;5.07;;;11.30;99.90;;;;;;5014396;28;20434;-68
2024/03/23 10:35:15;;;;;;;6.50;3.87;;;11.40;99.90;;;;;;5010177;28;20446;-66
2024/03/23 10:37:42;;;;;;;9.20;4.27;;;11.40;99.90;;;;;;5009100;28;20176;-67
2024/03/23 10:40:11;;;;;;;8.00;4.90;;;11.60;99.90;;;;;;5009622;28;20542;-67
2024/03/23 10:42:38;;;;;;;7.60;4.87;;;11.70;99.90;;;;;;5016400;28;20462;-66
2024/03/23 10:45:05;;;;;;;12.23;5.50;;;11.70;99.90;;;;;;5013396;28;20456;-66
2024/03/23 10:47:32;;;;;;;8.13;4.63;;;11.60;99.90;;;;;;5013312;28;20408;-67
2024/03/23 10:49:57;;;;;;;9.40;3.93;;;11.60;99.90;;;;;;5014842;28;20510;-67
2024/03/23 10:52:23;;;;;;;9.20;4.20;;;11.50;99.90;;;;;;5009397;28;20460;-67
2024/03/23 10:54:51;;;;;;;6.63;4.10;;;11.60;99.90;;;;;;5011472;28;20258;-67
2024/03/23 10:57:22;;;;;;;6.43;3.90;;;11.40;99.90;;;;;;5013827;28;20187;-68
2024/03/23 10:59:48;;;;;;;9.90;4.20;;;11.30;99.90;;;;;;5014170;28;20422;-67
2024/03/23 11:02:21;;;;;;;7.07;3.83;;;11.20;99.90;;;;;;5007168;28;20517;-68
2024/03/23 11:04:50;;;;;;;7.73;4.10;;;11.30;99.90;;;;;;5007402;28;20456;-68
2024/03/23 11:07:24;;;;;;;9.00;4.10;;;11.20;99.90;;;;;;5010587;28;20417;-67
2024/03/23 11:09:52;;;;;;;8.07;3.90;;;11.30;99.90;;;;;;5012421;28;20422;-66
2024/03/23 11:12:23;;;;;;;6.33;3.83;;;11.30;99.90;;;;;;5010307;28;20818;-67
2024/03/23 11:14:58;;;;;;;6.33;2.90;;;11.40;99.90;;;;;;5012603;28;20435;-67
2024/03/23 11:17:26;;;;;;;8.03;3.33;;;11.50;99.90;;;;;;5007394;28;20474;-67
2024/03/23 11:19:58;;;;;;;7.63;3.13;;;11.70;99.90;;;;;;5017788;28;20438;-67
2024/03/23 11:22:40;;;;;;;;;;;;;;;;;;;;;
2024/03/23 11:25:23;;;;;;;7.70;4.20;;;11.80;99.90;;;;;;5017858;28;20446;-67
2024/03/23 11:27:53;;;;;;;5.50;3.37;;;11.90;99.90;;;;;;5013812;28;20407;-67
2024/03/23 11:30:21;;;;;;;5.87;3.50;;;12.10;99.90;;;;;;5011123;28;20707;-67
2024/03/23 11:32:49;;;;;;;12.93;3.40;;;12.10;99.90;;;;;;5021221;28;20459;-67
2024/03/23 11:35:34;;;;;;;5.63;3.07;;;12.30;99.90;;;;;;5013480;28;20447;-67
2024/03/23 11:38:05;;;;;;;8.40;3.27;;;12.40;99.90;;;;;;5012526;28;20437;-67
2024/03/23 11:40:32;;;;;;;5.63;3.20;;;12.50;99.90;;;;;;5011507;28;20780;-67
2024/03/23 11:43:00;;;;;;;8.73;4.10;;;12.60;99.90;;;;;;5013234;28;20454;-67
2024/03/23 11:45:25;;;;;;;6.37;4.07;;;12.70;99.90;;;;;;5011171;28;20444;-67
2024/03/23 11:48:07;;;;;;;5.33;3.60;;;12.50;99.90;;;;;;5012735;28;20447;-67
2024/03/23 11:50:34;;;;;;;6.67;3.47;;;12.60;99.90;;;;;;5011527;28;20180;-67
2024/03/23 11:53:11;;;;;;;7.43;3.93;;;12.40;99.90;;;;;;5013158;28;20931;-67
2024/03/23 11:55:51;;;;;;;5.63;3.70;;;12.40;99.90;;;;;;5008318;28;20910;-67
2024/03/23 11:58:23;;;;;;;7.53;3.70;;;12.20;99.90;;;;;;5014636;28;21062;-67
2024/03/23 12:00:51;;;;;;;6.57;3.90;;;12.30;99.90;;;;;;5016477;28;20412;-67
2024/03/23 12:03:25;;;;;;;5.97;2.70;;;12.20;99.90;;;;;;5018223;28;20459;-67
2024/03/23 12:05:53;;;;;;;7.20;3.50;;;12.20;99.90;;;;;;5018024;28;21090;-67
2024/03/23 12:08:35;;;;;;;7.83;3.43;;;12.50;99.90;;;;;;5016481;28;20430;-67
2024/03/23 12:11:17;;;;;;;11.33;4.37;;;14.60;99.90;;;;;;5011457;28;20418;-67
2024/03/23 12:13:46;;;;;;;8.63;3.70;;;17.30;99.90;;;;;;5010034;28;20545;-67
2024/03/23 12:16:13;;;;;;;7.00;3.50;;;18.70;97.60;;;;;;5013140;28;20436;-67
2024/03/23 12:18:40;;;;;;;8.30;3.60;;;18.30;95.70;;;;;;5013985;28;20467;-68
2024/03/23 12:21:07;;;;;;;9.63;3.53;;;17.60;96.30;;;;;;5010985;28;20415;-68
2024/03/23 12:23:32;;;;;;;5.30;2.90;;;19.70;94.70;;;;;;5011034;28;20494;-67
2024/03/23 12:25:58;;;;;;;5.90;3.30;;;19.90;84.10;;;;;;5014191;28;20509;-68
2024/03/23 12:28:24;;;;;;;6.13;3.10;;;18.90;76.70;;;;;;5012085;28;20182;-67
2024/03/23 12:30:49;;;;;;;7.93;3.20;;;18.60;76.40;;;;;;5017181;28;20185;-68
2024/03/23 12:33:15;;;;;;;5.97;3.43;;;17.80;77.70;;;;;;5010647;28;20181;-67
2024/03/23 12:35:41;;;;;;;13.63;3.93;;;16.50;82.00;;;;;;5013968;28;20201;-67
2024/03/23 12:38:07;;;;;;;10.20;3.50;;;15.90;89.10;;;;;;5016240;28;20187;-68
2024/03/23 12:40:32;;;;;;;4.20;3.40;;;15.20;90.80;;;;;;5017252;28;20619;-67
2024/03/23 12:42:58;;;;;;;9.67;3.57;;;14.90;91.70;;;;;;5011820;28;20467;-67